Time;durP1;ratioP1;P1;durP2;ratioP2;P2;SDS_P1;SDS_P2;PMS_P1;PMS_P2;Temp;Humidity;BMP_temperature;BMP_pressure;BME280_temperature;BME280_humidity;BME280_pressure;Samples;Min_cycle;Max_cycle;Signal;HPM_P1;HPM_P2
2022/02/05 00:02:13;;;;;;;0.90;0.80;;;10.30;56.50;;;;;;5007439;28;20229;-46
2022/02/05 00:04:27;;;;;;;1.80;0.77;;;10.50;56.20;;;;;;5008232;28;20449;-50
2022/02/05 00:06:54;;;;;;;0.90;0.90;;;10.50;56.50;;;;;;5008666;28;20959;-47
2022/02/05 00:09:39;;;;;;;1.63;0.80;;;10.50;55.90;;;;;;5012355;28;20436;-47
2022/02/05 00:38:48;;;;;;;0.80;0.70;;;9.60;56.70;;;;;;5008566;28;20279;-51
2022/02/05 00:41:31;;;;;;;1.13;0.97;;;9.80;56.50;;;;;;5007738;28;20567;-46
2022/02/05 00:44:01;;;;;;;1.20;0.83;;;9.70;56.70;;;;;;5003716;28;20457;-47
2022/02/05 00:46:32;;;;;;;1.10;0.87;;;9.80;56.50;;;;;;5001014;28;20449;-46
2022/02/05 00:48:58;;;;;;;1.30;1.00;;;9.80;56.30;;;;;;5008103;28;20506;-47
2022/02/05 00:51:50;;;;;;;0.90;0.90;;;9.70;56.60;;;;;;5004286;28;20831;-46
2022/02/05 00:54:16;;;;;;;0.83;0.83;;;9.80;56.40;;;;;;5007702;28;20229;-46
2022/02/05 00:59:07;;;;;;;1.27;1.27;;;9.60;56.50;;;;;;5008772;28;20480;-48
2022/02/05 01:01:33;;;;;;;1.30;0.90;;;9.50;56.50;;;;;;5005949;28;20287;-48
2022/02/05 01:03:58;;;;;;;1.50;1.37;;;9.60;56.60;;;;;;5006633;28;20233;-46
2022/02/05 01:06:24;;;;;;;0.87;0.80;;;9.40;56.40;;;;;;5008426;28;20207;-45
2022/02/05 01:08:50;;;;;;;1.93;1.00;;;9.20;56.60;;;;;;5004104;28;20222;-45
2022/02/05 01:11:17;;;;;;;1.30;1.20;;;9.10;57.00;;;;;;5005493;28;20593;-45
2022/02/05 01:13:42;;;;;;;1.53;1.13;;;9.30;57.10;;;;;;5000713;28;20232;-45
2022/02/05 01:16:20;;;;;;;1.33;1.23;;;9.50;56.80;;;;;;5007847;28;20433;-45
2022/02/05 01:18:46;;;;;;;2.13;1.40;;;9.40;56.30;;;;;;5009794;28;20255;-45
2022/02/05 01:23:54;;;;;;;2.00;1.03;;;9.40;56.00;;;;;;5007164;28;20445;-44
2022/02/05 01:26:28;;;;;;;1.50;1.13;;;9.40;55.50;;;;;;5006272;28;22144;-46
2022/02/05 01:29:09;;;;;;;1.70;0.80;;;9.30;55.20;;;;;;5005838;28;20466;-45
2022/02/05 01:31:44;;;;;;;2.30;1.20;;;9.30;55.30;;;;;;5010243;28;20449;-48
2022/02/05 01:34:20;;;;;;;1.70;1.00;;;9.20;54.80;;;;;;5007639;28;20510;-45
2022/02/05 01:58:12;;;;;;;1.17;1.00;;;9.20;53.10;;;;;;5007052;28;20456;-46
2022/02/05 02:21:59;;;;;;;3.37;1.20;;;9.20;52.20;;;;;;5008158;28;20276;-49
2022/02/05 02:24:40;;;;;;;7.23;1.43;;;9.30;52.10;;;;;;5013730;28;20454;-46
2022/02/05 02:32:13;;;;;;;1.20;1.10;;;9.40;51.90;;;;;;5011084;28;20939;-45
2022/02/05 02:34:44;;;;;;;4.90;1.13;;;9.10;51.90;;;;;;5006995;28;20451;-46
2022/02/05 02:37:16;;;;;;;2.20;1.20;;;9.10;52.20;;;;;;5009580;28;20209;-47
2022/02/05 02:42:26;;;;;;;1.60;1.03;;;9.40;51.90;;;;;;5004717;28;20526;-45
2022/02/05 02:44:52;;;;;;;2.20;1.20;;;9.40;51.70;;;;;;5008907;28;20445;-45
2022/02/05 02:47:18;;;;;;;2.43;1.40;;;9.40;51.50;;;;;;5009520;28;20433;-45
2022/02/05 02:50:08;;;;;;;2.03;1.13;;;9.40;51.50;;;;;;5010708;28;20277;-50
2022/02/05 02:58:07;;;;;;;3.00;1.10;;;9.40;51.60;;;;;;5008486;28;20455;-49
2022/02/05 03:00:33;;;;;;;3.70;1.17;;;9.30;51.60;;;;;;5006672;28;20452;-46
2022/02/05 03:02:58;;;;;;;1.47;1.33;;;9.30;51.70;;;;;;5003153;28;20434;-47
2022/02/05 03:05:24;;;;;;;3.63;1.20;;;9.30;51.70;;;;;;5008422;28;20447;-50
2022/02/05 03:07:50;;;;;;;1.97;1.33;;;9.40;51.80;;;;;;5013378;28;20198;-45
2022/02/05 03:10:16;;;;;;;4.27;1.57;;;9.30;51.70;;;;;;5013682;28;20194;-46
2022/02/05 03:12:44;;;;;;;2.43;1.70;;;9.30;51.60;;;;;;5013415;28;20574;-48
2022/02/05 03:15:18;;;;;;;4.73;1.00;;;9.30;51.60;;;;;;5012821;28;20439;-47
2022/02/05 03:18:02;;;;;;;2.00;1.47;;;9.10;51.70;;;;;;5010533;28;20460;-49
2022/02/05 03:20:28;;;;;;;2.30;1.30;;;9.10;51.90;;;;;;5014076;28;20444;-46
2022/02/05 03:22:54;;;;;;;2.70;1.60;;;9.20;51.80;;;;;;5012571;28;20492;-45
2022/02/05 03:25:19;;;;;;;2.67;1.33;;;9.20;51.80;;;;;;5013221;28;20205;-47
2022/02/05 03:27:45;;;;;;;2.53;1.73;;;9.20;51.80;;;;;;5011267;28;20206;-46
2022/02/05 03:30:11;;;;;;;2.23;1.50;;;9.20;51.70;;;;;;5008848;28;20201;-47
2022/02/05 03:32:37;;;;;;;3.03;1.53;;;9.10;51.80;;;;;;5012797;28;20194;-45
2022/02/05 03:35:02;;;;;;;2.80;1.83;;;9.10;52.10;;;;;;5012960;28;20510;-46
2022/02/05 03:37:28;;;;;;;3.13;1.50;;;9.20;52.00;;;;;;5012018;28;20226;-51
2022/02/05 03:39:54;;;;;;;3.67;1.80;;;9.20;52.00;;;;;;5013199;28;20194;-45
2022/02/05 03:42:19;;;;;;;2.47;1.30;;;9.20;51.80;;;;;;5012573;28;20221;-46
2022/02/05 03:44:45;;;;;;;3.97;1.50;;;9.10;51.50;;;;;;5012412;28;20190;-47
2022/02/05 03:47:11;;;;;;;4.20;1.67;;;9.20;51.70;;;;;;5013396;28;20646;-49
2022/02/05 03:49:36;;;;;;;1.77;1.67;;;9.10;51.60;;;;;;5012770;28;20182;-46
2022/02/05 03:52:02;;;;;;;3.43;1.60;;;9.10;51.70;;;;;;5012544;28;20633;-46
2022/02/05 03:54:30;;;;;;;2.70;1.57;;;9.10;51.80;;;;;;5021890;28;20256;-46
2022/02/05 03:56:56;;;;;;;2.90;1.97;;;9.10;51.90;;;;;;5010470;28;20704;-48
2022/02/05 03:59:21;;;;;;;3.50;1.63;;;9.00;52.00;;;;;;5011462;28;20433;-45
2022/02/05 04:01:47;;;;;;;4.10;2.53;;;9.10;52.30;;;;;;5012523;28;20284;-47
2022/02/05 04:04:13;;;;;;;4.33;1.63;;;9.10;52.20;;;;;;5012804;28;20240;-47
2022/02/05 04:06:39;;;;;;;1.80;1.50;;;9.00;52.00;;;;;;5012157;28;20186;-54
2022/02/05 04:09:10;;;;;;;6.27;1.87;;;9.00;52.10;;;;;;5010041;28;20574;-49
2022/02/05 04:16:55;;;;;;;2.83;1.33;;;8.80;52.30;;;;;;5006768;28;21002;-47
2022/02/05 04:19:20;;;;;;;3.50;1.70;;;8.90;52.30;;;;;;5008071;28;20430;-44
2022/02/05 04:21:47;;;;;;;4.53;1.70;;;8.90;52.00;;;;;;5005036;28;20257;-47
2022/02/05 04:24:13;;;;;;;6.37;2.50;;;9.00;52.00;;;;;;5001824;28;20206;-47
2022/02/05 04:26:38;;;;;;;1.97;1.77;;;9.00;52.00;;;;;;5003736;28;20436;-50
2022/02/05 04:29:09;;;;;;;4.73;2.50;;;9.00;52.00;;;;;;5004720;28;20672;-45
2022/02/05 04:31:36;;;;;;;3.27;2.00;;;8.90;52.20;;;;;;5008737;28;20202;-46
2022/02/05 04:34:02;;;;;;;5.73;2.13;;;8.80;52.30;;;;;;5003685;28;20476;-48
2022/02/05 04:36:28;;;;;;;4.10;1.60;;;8.70;52.30;;;;;;5004340;28;20500;-44
2022/02/05 04:38:55;;;;;;;2.10;1.47;;;8.70;52.60;;;;;;5003834;28;20967;-46
2022/02/05 04:41:26;;;;;;;4.03;1.70;;;8.70;53.00;;;;;;5008329;28;20571;-46
2022/02/05 04:49:25;;;;;;;8.07;2.30;;;8.60;53.30;;;;;;5005727;28;20492;-49
2022/02/05 04:58:01;;;;;;;4.13;2.27;;;8.60;53.50;;;;;;5003119;28;20227;-47
2022/02/05 05:02:53;;;;;;;3.30;1.63;;;8.50;53.60;;;;;;5002391;28;20548;-48
2022/02/05 05:05:39;;;;;;;2.20;1.87;;;8.60;53.60;;;;;;5002787;28;20448;-50
2022/02/05 05:21:23;;;;;;;3.73;1.67;;;8.70;53.20;;;;;;5006894;28;20551;-46
2022/02/05 05:23:49;;;;;;;2.83;1.97;;;8.90;53.10;;;;;;5011517;28;20424;-50
2022/02/05 05:26:14;;;;;;;2.90;1.80;;;8.90;53.00;;;;;;5007155;28;20263;-49
2022/02/05 05:28:40;;;;;;;3.83;1.80;;;8.90;53.00;;;;;;5009565;28;20275;-50
2022/02/05 05:31:05;;;;;;;8.33;1.83;;;9.00;53.10;;;;;;5010652;28;20638;-49
2022/02/05 05:33:31;;;;;;;8.63;2.90;;;9.00;53.10;;;;;;5003843;28;20233;-48
2022/02/05 05:35:57;;;;;;;3.67;1.97;;;9.10;52.80;;;;;;5005671;28;20198;-49
2022/02/05 05:38:22;;;;;;;3.33;1.93;;;9.20;52.60;;;;;;5008188;28;20314;-47
2022/02/05 05:40:48;;;;;;;8.70;2.73;;;9.20;52.60;;;;;;5013903;28;20640;-46
2022/02/05 05:46:18;;;;;;;2.63;1.80;;;9.10;52.70;;;;;;4995648;28;20214;-46
2022/02/05 05:49:45;;;;;;;3.20;1.70;;;9.20;52.50;;;;;;5010901;28;20531;-47
2022/02/05 05:51:30;;;;;;;3.20;2.23;;;9.30;52.40;;;;;;5003271;28;20512;-49
2022/02/05 05:53:56;;;;;;;3.17;2.53;;;9.30;52.40;;;;;;5008542;28;21212;-47
2022/02/05 05:56:23;;;;;;;5.10;1.87;;;9.30;52.40;;;;;;5010406;28;20201;-50
2022/02/05 05:58:49;;;;;;;3.13;2.30;;;9.40;52.30;;;;;;5007465;28;20201;-50
2022/02/05 06:01:15;;;;;;;3.53;1.53;;;9.50;52.70;;;;;;5009225;28;20477;-50
2022/02/05 06:03:41;;;;;;;5.40;2.33;;;9.50;52.40;;;;;;5005608;28;20198;-45
2022/02/05 06:06:07;;;;;;;4.13;2.03;;;9.50;52.10;;;;;;5006193;28;20191;-48
2022/02/05 06:08:32;;;;;;;7.50;2.93;;;9.50;52.00;;;;;;5005239;28;22379;-46
2022/02/05 06:10:58;;;;;;;2.63;1.87;;;9.60;52.00;;;;;;5008553;28;20202;-44
2022/02/05 06:13:24;;;;;;;4.13;2.00;;;9.60;52.20;;;;;;5010470;28;20581;-44
2022/02/05 06:15:52;;;;;;;2.70;1.70;;;9.60;52.10;;;;;;5009049;28;20198;-45
2022/02/05 06:18:17;;;;;;;4.83;2.23;;;9.70;52.30;;;;;;5010885;28;20216;-46
2022/02/05 06:20:43;;;;;;;4.87;2.00;;;9.70;52.60;;;;;;5012289;28;20447;-46
2022/02/05 06:23:08;;;;;;;2.90;2.20;;;9.70;52.70;;;;;;5008476;28;20199;-46
2022/02/05 06:25:35;;;;;;;4.90;2.77;;;9.70;52.80;;;;;;5004762;28;20198;-44
2022/02/05 06:28:01;;;;;;;4.00;2.67;;;9.80;54.00;;;;;;5008834;28;20208;-45
2022/02/05 06:30:27;;;;;;;6.40;2.20;;;10.00;53.70;;;;;;5008603;28;20524;-44
2022/02/05 06:32:59;;;;;;;4.70;2.53;;;10.10;53.60;;;;;;5012872;28;20536;-47
2022/02/05 06:35:24;;;;;;;3.27;2.20;;;10.30;52.90;;;;;;5008833;28;20684;-45
2022/02/05 06:37:50;;;;;;;5.20;2.40;;;10.50;53.10;;;;;;5007313;28;20534;-46
2022/02/05 06:40:16;;;;;;;3.47;2.40;;;10.70;52.40;;;;;;5002908;28;20327;-45
2022/02/05 06:42:46;;;;;;;3.87;2.50;;;10.70;52.00;;;;;;5009297;28;20326;-46
2022/02/05 06:45:13;;;;;;;5.30;2.97;;;10.80;51.80;;;;;;5009016;28;20256;-46
2022/02/05 06:47:39;;;;;;;4.43;2.70;;;10.90;51.10;;;;;;5010787;28;20758;-46
2022/02/05 06:50:05;;;;;;;8.77;3.80;;;11.00;50.90;;;;;;5015469;28;20487;-46
2022/02/05 06:52:30;;;;;;;7.00;4.20;;;11.10;50.70;;;;;;5013567;28;20193;-47
2022/02/05 06:54:56;;;;;;;10.13;5.93;;;11.10;50.50;;;;;;5015012;28;20863;-45
2022/02/05 06:57:22;;;;;;;10.27;4.50;;;11.10;50.40;;;;;;5010516;28;20202;-46
2022/02/05 06:59:47;;;;;;;4.50;2.80;;;11.20;49.80;;;;;;5012293;28;20200;-46
2022/02/05 07:02:14;;;;;;;3.00;2.50;;;11.20;49.50;;;;;;5008260;28;20234;-45
2022/02/05 07:04:39;;;;;;;3.60;2.30;;;11.10;48.90;;;;;;5012952;28;20204;-47
2022/02/05 07:10:30;;;;;;;5.53;1.90;;;10.90;48.80;;;;;;5041343;23;20271;-46
2022/02/05 07:13:10;;;;;;;5.73;2.50;;;10.70;49.00;;;;;;5007985;28;20476;-45
2022/02/05 07:15:41;;;;;;;4.20;3.17;;;10.70;49.60;;;;;;5011941;28;20277;-45
2022/02/05 07:20:42;;;;;;;6.30;4.17;;;10.40;49.50;;;;;;5008961;28;20452;-45
2022/02/05 07:23:31;;;;;;;5.17;3.00;;;10.40;49.80;;;;;;5016831;28;20453;-45
2022/02/05 07:31:22;;;;;;;4.50;2.30;;;10.90;49.80;;;;;;5006403;28;20459;-45
2022/02/05 07:33:48;;;;;;;5.60;2.90;;;10.90;49.40;;;;;;5012572;28;20425;-45
2022/02/05 07:36:16;;;;;;;3.40;3.10;;;10.90;49.60;;;;;;5010156;28;20197;-45
2022/02/05 07:38:42;;;;;;;6.53;4.67;;;11.00;49.90;;;;;;5010025;28;20506;-46
2022/02/05 07:41:08;;;;;;;4.10;3.80;;;11.00;49.40;;;;;;5012640;28;20505;-46
2022/02/05 07:43:35;;;;;;;6.40;2.50;;;11.10;49.60;;;;;;5010493;28;20463;-49
2022/02/05 07:46:10;;;;;;;4.57;2.40;;;11.10;49.30;;;;;;5013499;28;20903;-43
2022/02/05 07:48:36;;;;;;;3.90;2.30;;;11.00;49.40;;;;;;5011430;28;20506;-44
2022/02/05 07:51:03;;;;;;;10.50;2.60;;;11.00;49.50;;;;;;5007888;28;20437;-45
2022/02/05 07:53:30;;;;;;;3.60;2.50;;;10.90;49.30;;;;;;5012000;28;20917;-48
2022/02/05 07:55:57;;;;;;;6.80;2.70;;;10.80;49.20;;;;;;5017471;28;20948;-47
2022/02/05 07:58:23;;;;;;;6.00;1.90;;;10.80;49.40;;;;;;5012198;28;20424;-45
2022/02/05 08:00:49;;;;;;;2.40;2.20;;;10.80;49.20;;;;;;5012987;28;20425;-47
2022/02/05 08:03:15;;;;;;;5.43;2.60;;;10.90;49.30;;;;;;5011139;28;20797;-45
2022/02/05 08:05:41;;;;;;;9.43;2.40;;;10.80;49.30;;;;;;4998317;28;20269;-45
2022/02/05 08:08:11;;;;;;;3.67;1.60;;;10.60;49.20;;;;;;4992784;28;20430;-46
2022/02/05 08:10:45;;;;;;;5.27;2.23;;;10.60;49.60;;;;;;5010579;28;20256;-47
2022/02/05 08:13:11;;;;;;;2.00;1.90;;;10.50;49.40;;;;;;5012116;28;20463;-45
2022/02/05 08:15:37;;;;;;;2.00;1.80;;;10.40;49.40;;;;;;5004720;28;20813;-48
2022/02/05 08:18:02;;;;;;;3.00;2.23;;;10.50;49.60;;;;;;5003702;28;20530;-48
2022/02/05 08:20:28;;;;;;;3.70;2.27;;;10.60;50.00;;;;;;5012445;28;20217;-46
2022/02/05 08:22:54;;;;;;;5.07;2.13;;;10.60;49.80;;;;;;5011946;28;20348;-45
2022/02/05 08:25:19;;;;;;;5.23;2.43;;;10.60;49.60;;;;;;5011627;28;20213;-46
2022/02/05 08:27:45;;;;;;;4.60;2.03;;;10.70;49.80;;;;;;5011841;28;20727;-45
2022/02/05 08:30:13;;;;;;;9.47;2.73;;;10.70;50.40;;;;;;5011202;28;20554;-49
2022/02/05 08:32:40;;;;;;;4.60;2.23;;;10.70;49.80;;;;;;5011303;28;20222;-48
2022/02/05 08:35:07;;;;;;;3.77;2.80;;;10.80;50.00;;;;;;5011453;28;20448;-47
2022/02/05 08:37:37;;;;;;;2.43;2.20;;;10.90;50.00;;;;;;5004591;28;20492;-48
2022/02/05 08:40:04;;;;;;;3.10;2.60;;;10.90;49.60;;;;;;5003407;28;20460;-46
2022/02/05 08:42:29;;;;;;;2.70;2.03;;;11.00;49.70;;;;;;4991946;28;20501;-45
2022/02/05 08:44:55;;;;;;;3.43;2.27;;;11.10;49.80;;;;;;5003123;28;20920;-46
2022/02/05 08:47:21;;;;;;;3.20;2.37;;;11.20;49.60;;;;;;5011347;28;20274;-46
2022/02/05 08:49:46;;;;;;;6.30;2.40;;;11.20;49.50;;;;;;5011517;28;20198;-47
2022/02/05 08:52:12;;;;;;;5.20;2.23;;;11.30;49.80;;;;;;5011779;28;20206;-46
2022/02/05 08:54:39;;;;;;;4.53;2.60;;;11.40;49.80;;;;;;5011859;28;20198;-45
2022/02/05 08:57:08;;;;;;;4.63;2.90;;;11.40;49.10;;;;;;5010279;28;20425;-46
2022/02/05 08:59:46;;;;;;;3.03;2.57;;;11.50;49.00;;;;;;5010729;28;20426;-45
2022/02/05 09:03:00;;;;;;;4.07;2.80;;;11.50;49.10;;;;;;4999612;28;20483;-48
2022/02/05 09:07:35;;;;;;;3.53;1.80;;;11.40;48.20;;;;;;5011296;28;20515;-46
2022/02/05 09:15:44;;;;;;;2.23;2.10;;;11.20;48.60;;;;;;4998522;28;20445;-45
2022/02/05 09:18:10;;;;;;;3.43;1.73;;;11.30;48.20;;;;;;5007389;28;20434;-44
2022/02/05 09:20:36;;;;;;;3.90;2.13;;;11.40;48.10;;;;;;5008309;28;20210;-44
2022/02/05 09:23:01;;;;;;;6.87;2.60;;;11.60;48.50;;;;;;4997597;28;20237;-44
2022/02/05 09:25:27;;;;;;;6.20;2.10;;;11.60;48.10;;;;;;5003481;28;20282;-43
2022/02/05 09:27:54;;;;;;;4.20;1.73;;;11.70;47.90;;;;;;5008542;28;20217;-44
2022/02/05 09:30:29;;;;;;;2.13;1.83;;;11.90;47.90;;;;;;5011863;28;20220;-43
2022/02/05 09:32:55;;;;;;;5.40;1.80;;;11.90;48.00;;;;;;5010729;28;20847;-44
2022/02/05 09:35:20;;;;;;;4.13;1.67;;;12.00;47.90;;;;;;5010479;28;20491;-47
2022/02/05 09:37:46;;;;;;;4.33;1.83;;;12.20;47.40;;;;;;5010204;28;20198;-43
2022/02/05 09:40:11;;;;;;;3.50;1.50;;;12.40;47.20;;;;;;5010278;28;20206;-44
2022/02/05 09:42:45;;;;;;;4.53;1.77;;;12.60;47.00;;;;;;5011094;28;20295;-43
2022/02/05 09:45:12;;;;;;;3.27;1.90;;;12.60;45.90;;;;;;5006972;28;20186;-43
2022/02/05 09:47:38;;;;;;;6.13;1.97;;;12.70;45.70;;;;;;5009893;28;20451;-46
2022/02/05 09:50:04;;;;;;;4.43;1.50;;;12.60;45.00;;;;;;5015281;28;20440;-44
2022/02/05 09:52:30;;;;;;;7.70;1.73;;;12.50;46.00;;;;;;5014473;28;20343;-44
2022/02/05 09:54:55;;;;;;;2.50;1.50;;;12.40;45.90;;;;;;5012558;28;20532;-45
2022/02/05 09:57:21;;;;;;;2.70;1.50;;;12.30;45.50;;;;;;5012983;28;20193;-44
2022/02/05 09:59:54;;;;;;;4.83;1.90;;;12.30;45.90;;;;;;5010300;28;20190;-44
2022/02/05 10:02:36;;;;;;;3.60;1.87;;;12.10;45.40;;;;;;5004281;28;20229;-44
2022/02/05 10:05:15;;;;;;;6.40;2.00;;;12.10;45.40;;;;;;5000506;28;20436;-44
2022/02/05 10:08:06;;;;;;;4.40;1.50;;;12.10;45.40;;;;;;5006633;28;20441;-44
2022/02/05 10:10:45;;;;;;;5.23;2.17;;;12.30;45.50;;;;;;5011994;28;20507;-45
2022/02/05 10:13:19;;;;;;;4.73;2.10;;;12.40;45.50;;;;;;5005318;28;20448;-44
2022/02/05 10:15:52;;;;;;;4.30;1.43;;;12.10;45.10;;;;;;5006363;28;20471;-44
2022/02/05 10:18:27;;;;;;;7.50;2.97;;;12.30;45.60;;;;;;5003099;28;21223;-45
2022/02/05 10:20:55;;;;;;;2.20;1.23;;;12.20;45.60;;;;;;5008229;28;20510;-46
2022/02/05 10:23:21;;;;;;;9.13;1.23;;;12.00;45.20;;;;;;5008376;28;20546;-45
2022/02/05 10:25:52;;;;;;;3.87;1.73;;;12.10;45.90;;;;;;5015317;28;20502;-43
2022/02/05 10:28:18;;;;;;;6.73;1.50;;;12.20;45.10;;;;;;5000379;28;20195;-44
2022/02/05 10:30:49;;;;;;;5.67;1.70;;;12.40;44.90;;;;;;4999033;28;20448;-45
2022/02/05 10:33:26;;;;;;;2.30;1.37;;;12.50;44.20;;;;;;5007606;28;20436;-44
2022/02/05 10:36:09;;;;;;;2.80;1.33;;;12.80;44.00;;;;;;5005480;28;20448;-44
2022/02/05 10:43:58;;;;;;;4.77;1.70;;;12.80;43.00;;;;;;5010607;28;20439;-44
2022/02/05 10:46:35;;;;;;;2.57;1.80;;;12.70;43.30;;;;;;5011205;28;20944;-43
2022/02/05 10:49:01;;;;;;;4.63;1.27;;;12.80;43.10;;;;;;5008392;28;20435;-44
2022/02/05 10:51:45;;;;;;;3.43;1.47;;;12.90;42.90;;;;;;5011146;28;20523;-45
2022/02/05 10:57:18;;;;;;;6.83;1.30;;;13.10;43.00;;;;;;4996382;28;20510;-44
2022/02/05 11:05:43;;;;;;;2.00;1.00;;;13.00;43.90;;;;;;5004300;28;20447;-43
2022/02/05 11:08:12;;;;;;;1.20;1.10;;;13.20;42.00;;;;;;5017165;28;20441;-47
2022/02/05 11:21:14;;;;;;;2.07;1.23;;;13.30;41.90;;;;;;5013442;28;20909;-44
2022/02/05 11:23:46;;;;;;;3.50;1.23;;;13.40;41.20;;;;;;5010344;28;20535;-44
2022/02/05 11:26:12;;;;;;;2.23;1.10;;;13.70;41.00;;;;;;5006679;28;20444;-44
2022/02/05 11:28:45;;;;;;;5.20;1.30;;;13.80;40.70;;;;;;5009859;28;20445;-44
2022/02/05 11:31:40;;;;;;;3.20;1.03;;;13.70;39.50;;;;;;5011090;28;20452;-44
2022/02/05 11:34:27;;;;;;;2.50;1.20;;;13.70;39.40;;;;;;5004099;28;20429;-45
2022/02/05 11:37:04;;;;;;;3.03;1.17;;;13.90;40.60;;;;;;5007997;28;20531;-47
2022/02/05 11:39:49;;;;;;;1.73;0.90;;;14.00;39.70;;;;;;5009475;28;20440;-45
2022/02/05 11:42:36;;;;;;;3.67;1.13;;;14.20;39.70;;;;;;4999524;28;20493;-44
2022/02/05 11:45:24;;;;;;;2.07;1.20;;;14.30;39.00;;;;;;5004405;28;20475;-43
2022/02/05 11:47:49;;;;;;;1.50;1.20;;;13.90;38.80;;;;;;5009722;28;20861;-44
2022/02/05 11:50:17;;;;;;;2.43;1.07;;;13.60;38.50;;;;;;5009434;28;20520;-44
2022/02/05 11:52:43;;;;;;;2.00;1.03;;;13.70;38.90;;;;;;5010579;28;20259;-44
2022/02/05 11:55:31;;;;;;;4.20;1.30;;;13.70;38.80;;;;;;5006589;28;21038;-46
2022/02/05 11:57:58;;;;;;;2.20;1.10;;;13.90;38.50;;;;;;5009720;28;20523;-46
2022/02/05 12:00:34;;;;;;;1.50;0.83;;;14.00;38.20;;;;;;5011636;28;20436;-44
2022/02/05 12:03:37;;;;;;;1.73;1.00;;;14.00;37.90;;;;;;5007024;28;20521;-44
2022/02/05 12:06:08;;;;;;;7.73;1.50;;;14.10;38.10;;;;;;5015376;28;20440;-46
2022/02/05 12:08:37;;;;;;;2.50;0.97;;;14.20;38.30;;;;;;5012284;28;20960;-45
2022/02/05 12:11:24;;;;;;;2.43;0.97;;;14.20;37.90;;;;;;5009691;28;20441;-47
2022/02/05 12:14:10;;;;;;;3.17;1.00;;;14.10;38.20;;;;;;5010401;28;20437;-45
2022/02/05 12:16:37;;;;;;;2.80;0.93;;;14.20;38.70;;;;;;5004190;28;20802;-44
2022/02/05 12:19:14;;;;;;;1.80;0.97;;;14.20;37.90;;;;;;5000931;28;20436;-45
2022/02/05 12:21:55;;;;;;;3.87;1.40;;;14.20;37.10;;;;;;5005285;28;20476;-43
2022/02/05 12:24:40;;;;;;;2.70;1.37;;;14.50;38.00;;;;;;5007887;28;20567;-43
2022/02/05 12:27:29;;;;;;;1.73;1.07;;;14.80;37.40;;;;;;5011334;28;20440;-45
2022/02/05 12:29:54;;;;;;;2.50;1.17;;;14.70;36.30;;;;;;5009704;28;20525;-46
2022/02/05 12:32:20;;;;;;;1.30;0.80;;;14.70;35.80;;;;;;5008082;28;20524;-44
2022/02/05 12:34:49;;;;;;;3.03;1.10;;;14.80;36.00;;;;;;5004235;28;20191;-48
2022/02/05 12:37:14;;;;;;;2.53;1.60;;;14.60;36.40;;;;;;5007594;28;20436;-45
2022/02/05 12:39:40;;;;;;;3.20;1.00;;;14.50;35.90;;;;;;5009716;28;20594;-45
2022/02/05 12:42:16;;;;;;;2.20;1.00;;;14.60;36.60;;;;;;5008473;28;20221;-44
2022/02/05 12:44:43;;;;;;;2.97;1.30;;;14.60;37.20;;;;;;5006940;28;20671;-46
2022/02/05 12:47:19;;;;;;;4.30;1.10;;;14.50;36.90;;;;;;5009009;28;20476;-47
2022/02/05 12:49:54;;;;;;;1.97;1.10;;;14.40;36.90;;;;;;5011200;28;20471;-44
2022/02/05 12:52:30;;;;;;;1.87;0.90;;;14.60;37.20;;;;;;5010557;28;20429;-45
2022/02/05 12:54:58;;;;;;;1.97;0.90;;;14.60;36.40;;;;;;5011414;28;20971;-44
2022/02/05 12:57:25;;;;;;;2.27;1.20;;;14.80;36.50;;;;;;5009212;28;20437;-45
2022/02/05 12:59:51;;;;;;;2.53;1.30;;;14.80;36.70;;;;;;5011123;28;20527;-44
2022/02/05 13:02:19;;;;;;;2.33;1.10;;;14.60;36.20;;;;;;5009832;28;20484;-44
2022/02/05 13:04:49;;;;;;;1.40;1.30;;;14.60;36.30;;;;;;5006466;28;20441;-47
2022/02/05 13:07:19;;;;;;;3.43;1.40;;;14.50;36.40;;;;;;4991652;28;20465;-43
2022/02/05 13:09:58;;;;;;;1.03;0.93;;;14.60;36.70;;;;;;5008665;28;20564;-44
2022/02/05 13:12:37;;;;;;;5.23;1.07;;;14.60;36.80;;;;;;5008473;28;20806;-45
2022/02/05 13:15:24;;;;;;;3.03;1.00;;;14.40;36.60;;;;;;5010627;28;20444;-46
2022/02/05 13:29:40;;;;;;;2.97;0.80;;;14.80;37.10;;;;;;5004908;28;20429;-46
2022/02/05 13:34:25;;;;;;;2.80;1.10;;;15.10;36.20;;;;;;5007468;28;21051;-44
2022/02/05 13:39:37;;;;;;;1.10;0.90;;;15.00;36.80;;;;;;5007656;28;20455;-44
2022/02/05 13:42:10;;;;;;;2.00;0.90;;;14.90;36.30;;;;;;5005778;28;20910;-44
2022/02/05 13:44:55;;;;;;;2.77;1.20;;;15.10;36.90;;;;;;5000575;28;20452;-44
2022/02/05 13:47:48;;;;;;;1.80;0.93;;;15.10;36.50;;;;;;5000482;28;20451;-44
2022/02/05 13:50:29;;;;;;;2.00;1.70;;;15.00;36.70;;;;;;4995605;28;20834;-44
2022/02/05 13:53:01;;;;;;;2.10;0.90;;;14.90;36.80;;;;;;5004497;28;20461;-43
2022/02/05 13:55:37;;;;;;;1.87;1.23;;;15.10;37.20;;;;;;5006878;28;20920;-45
2022/02/05 13:58:03;;;;;;;3.73;1.27;;;15.10;36.50;;;;;;5008788;28;20452;-45
2022/02/05 14:00:48;;;;;;;3.27;1.53;;;15.10;36.10;;;;;;5012183;28;20444;-43
2022/02/05 14:03:36;;;;;;;2.13;1.27;;;15.20;36.30;;;;;;5010359;28;20311;-47
2022/02/05 14:06:13;;;;;;;2.10;0.90;;;15.00;36.50;;;;;;5008231;28;20531;-44
2022/02/05 14:08:51;;;;;;;4.00;1.23;;;15.10;36.50;;;;;;5006773;28;20500;-46
2022/02/05 14:11:38;;;;;;;2.93;1.30;;;15.20;36.40;;;;;;5009797;28;20433;-45
2022/02/05 14:14:12;;;;;;;3.13;1.17;;;15.20;36.40;;;;;;5003044;28;20485;-44
2022/02/05 14:16:40;;;;;;;1.20;1.00;;;15.10;36.20;;;;;;5012854;28;20799;-44
2022/02/05 14:19:07;;;;;;;2.97;1.63;;;15.20;36.20;;;;;;5011265;28;20437;-44
2022/02/05 14:21:45;;;;;;;1.93;1.00;;;15.00;36.00;;;;;;5015389;28;20887;-46
2022/02/05 14:24:19;;;;;;;2.97;1.37;;;15.00;36.10;;;;;;5012087;28;20440;-45
2022/02/05 14:27:28;;;;;;;3.57;1.30;;;15.10;36.30;;;;;;5013230;28;20455;-48
2022/02/05 14:32:26;;;;;;;4.90;1.27;;;15.50;36.30;;;;;;5007163;28;20444;-45
2022/02/05 14:42:53;;;;;;;1.13;0.90;;;15.30;36.50;;;;;;5006111;28;20514;-46
2022/02/05 14:45:18;;;;;;;4.23;1.00;;;15.00;36.40;;;;;;5019145;28;20962;-48
2022/02/05 14:47:44;;;;;;;3.23;1.20;;;14.80;36.50;;;;;;5013807;28;20555;-47
2022/02/05 14:50:10;;;;;;;3.40;1.03;;;14.70;36.90;;;;;;5014536;28;20247;-46
2022/02/05 14:52:36;;;;;;;6.33;1.50;;;14.80;36.70;;;;;;5009840;28;20201;-47
2022/02/05 14:55:01;;;;;;;1.77;1.20;;;14.70;36.50;;;;;;5014514;28;20429;-48
2022/02/05 14:57:27;;;;;;;2.90;1.30;;;14.80;36.30;;;;;;5010427;28;20194;-48
2022/02/05 14:59:53;;;;;;;4.80;1.30;;;14.70;36.20;;;;;;5008922;28;20252;-45
2022/02/05 15:02:18;;;;;;;2.20;1.10;;;14.40;36.00;;;;;;5012341;28;20225;-45
2022/02/05 15:04:45;;;;;;;3.30;0.97;;;14.40;36.00;;;;;;5012505;28;20590;-48
2022/02/05 15:07:13;;;;;;;5.03;1.30;;;14.40;36.40;;;;;;5011852;28;20190;-48
2022/02/05 15:09:39;;;;;;;5.50;1.57;;;14.50;36.40;;;;;;5013138;28;20485;-46
2022/02/05 15:12:05;;;;;;;1.50;0.90;;;14.50;36.20;;;;;;5004423;28;20985;-47
2022/02/05 15:14:31;;;;;;;2.57;1.10;;;14.30;35.70;;;;;;5012350;28;20713;-46
2022/02/05 15:16:56;;;;;;;6.73;1.90;;;14.30;36.40;;;;;;5007705;28;20523;-46
2022/02/05 15:19:23;;;;;;;2.30;1.30;;;14.20;35.50;;;;;;5011118;28;20214;-46
2022/02/05 15:21:49;;;;;;;2.50;1.20;;;13.80;35.50;;;;;;5008486;28;20491;-47
2022/02/05 15:24:14;;;;;;;1.90;1.10;;;13.80;35.40;;;;;;5008457;28;20198;-46
2022/02/05 15:26:40;;;;;;;6.93;1.47;;;13.70;35.80;;;;;;5010368;28;20202;-46
2022/02/05 15:29:09;;;;;;;3.80;1.53;;;13.90;36.00;;;;;;5009340;28;20646;-48
2022/02/05 15:31:37;;;;;;;3.40;1.30;;;13.80;36.00;;;;;;5009581;28;20568;-45
2022/02/05 15:34:04;;;;;;;3.30;1.10;;;14.00;35.80;;;;;;5007060;28;20432;-45
2022/02/05 15:44:51;;;;;;;2.67;0.90;;;13.90;36.80;;;;;;5006245;28;20949;-45
2022/02/05 15:47:17;;;;;;;2.00;1.20;;;13.70;36.20;;;;;;5011074;28;20433;-46
2022/02/05 15:49:42;;;;;;;1.97;1.30;;;13.50;36.40;;;;;;5009833;28;20194;-46
2022/02/05 15:52:10;;;;;;;2.73;1.30;;;13.70;36.60;;;;;;5012488;28;20201;-49
2022/02/05 15:54:36;;;;;;;4.00;1.33;;;13.70;36.50;;;;;;5012366;28;20240;-46
2022/02/05 15:57:18;;;;;;;1.07;0.90;;;13.50;36.80;;;;;;5010947;28;20441;-48
2022/02/05 16:00:23;;;;;;;1.83;1.13;;;13.20;37.20;;;;;;5008916;28;20987;-45
2022/02/05 16:02:35;;;;;;;2.40;1.10;;;12.90;37.60;;;;;;5006096;28;20488;-48
2022/02/05 16:05:01;;;;;;;1.20;0.90;;;12.70;38.30;;;;;;5006969;28;20436;-46
2022/02/05 16:07:26;;;;;;;1.87;1.53;;;12.60;38.50;;;;;;5005990;28;20688;-45
2022/02/05 16:09:52;;;;;;;1.43;0.93;;;12.40;38.50;;;;;;5009257;28;20233;-45
2022/02/05 16:12:17;;;;;;;2.77;1.10;;;12.20;39.10;;;;;;5008348;28;20216;-44
2022/02/05 16:14:43;;;;;;;1.80;0.90;;;12.30;39.40;;;;;;5012439;28;20198;-45
2022/02/05 16:17:09;;;;;;;2.20;1.07;;;12.40;39.20;;;;;;5009742;28;20198;-47
2022/02/05 16:19:34;;;;;;;2.10;1.33;;;12.40;39.10;;;;;;5014153;28;20201;-44
2022/02/05 16:22:00;;;;;;;1.10;0.87;;;12.50;39.40;;;;;;5010425;28;20229;-45
2022/02/05 16:24:25;;;;;;;0.80;0.80;;;12.40;39.10;;;;;;5009539;28;20198;-47
2022/02/05 16:26:51;;;;;;;1.37;0.90;;;12.30;39.70;;;;;;5012620;28;20205;-47
2022/02/05 16:29:19;;;;;;;2.70;1.80;;;12.10;39.80;;;;;;5018960;28;20219;-45